createdAt,value
2019-06-20T00:00:01.523Z,21.6
2019-06-20T00:05:01.392Z,21.8
2019-06-20T00:10:01.974Z,21.7
2019-06-20T00:15:01.394Z,21.4
2019-06-20T00:20:06.540Z,21.5
2019-06-20T00:25:03.392Z,21.3
2019-06-20T00:31:01.485Z,21.0
2019-06-20T00:36:06.408Z,21.0
2019-06-20T00:41:01.447Z,21.2
2019-06-20T00:46:01.426Z,21.3
2019-06-20T00:51:01.549Z,21.6
2019-06-20T00:56:01.502Z,21.7
2019-06-20T01:01:01.618Z,21.5
2019-06-20T01:06:01.618Z,21.6
2019-06-20T01:11:01.394Z,21.6
2019-06-20T01:21:01.454Z,21.3
2019-06-20T01:26:01.411Z,21.8
2019-06-20T01:31:01.512Z,22.2
2019-06-20T01:36:01.386Z,22.5
2019-06-20T01:41:06.854Z,23.0
2019-06-20T01:46:06.390Z,23.0
2019-06-20T01:51:06.469Z,22.8
2019-06-20T01:56:06.403Z,22.6
2019-06-20T02:01:06.537Z,22.4
2019-06-20T02:06:06.391Z,22.3
2019-06-20T02:11:11.542Z,22.6
2019-06-20T02:16:11.401Z,22.8
2019-06-20T02:21:06.530Z,22.8
2019-06-20T02:26:06.405Z,22.9
2019-06-20T02:31:06.474Z,22.8
2019-06-20T02:36:06.474Z,22.5
2019-06-20T02:41:06.540Z,22.5
2019-06-20T02:46:01.354Z,22.4
2019-06-20T02:51:01.537Z,22.1
2019-06-20T02:56:01.384Z,21.8
2019-06-20T03:01:01.423Z,21.0
2019-06-20T03:06:01.363Z,20.4
2019-06-20T03:11:01.460Z,19.7
2019-06-20T03:16:06.441Z,18.9
2019-06-20T03:21:01.513Z,18.7
2019-06-20T03:26:01.430Z,18.6
2019-06-20T03:31:01.433Z,18.6
2019-06-20T03:36:01.580Z,18.0
2019-06-20T03:41:01.460Z,17.5
2019-06-20T03:46:01.352Z,17.3
2019-06-20T03:51:01.451Z,17.1
2019-06-20T03:56:01.357Z,16.6
2019-06-20T04:01:01.516Z,16.8
2019-06-20T04:06:01.394Z,17.4
2019-06-20T04:11:01.462Z,17.6
2019-06-20T04:16:01.399Z,18.2
2019-06-20T04:21:01.454Z,18.6
2019-06-20T04:26:07.553Z,19.5
2019-06-20T04:31:11.460Z,20.1
2019-06-20T04:36:01.542Z,20.6
2019-06-20T04:41:01.587Z,21.1
2019-06-20T04:46:06.470Z,21.7
2019-06-20T04:51:01.519Z,22.4
2019-06-20T04:56:06.267Z,23.0
2019-06-20T05:01:01.451Z,23.5
2019-06-20T05:06:01.387Z,24.0
2019-06-20T05:11:01.525Z,24.5
2019-06-20T05:16:01.402Z,24.5
2019-06-20T05:21:01.465Z,24.8
2019-06-20T05:26:01.392Z,25.2
2019-06-20T05:31:01.510Z,25.1
2019-06-20T05:36:01.387Z,25.4
2019-06-20T05:41:01.521Z,25.6
2019-06-20T05:46:11.500Z,25.5
2019-06-20T05:51:01.521Z,24.8
2019-06-20T05:56:06.404Z,24.6
2019-06-20T06:01:06.472Z,24.2
2019-06-20T06:06:06.423Z,23.8
2019-06-20T06:11:01.452Z,23.1
2019-06-20T06:21:02.112Z,23.1
2019-06-20T06:26:01.402Z,22.9
2019-06-20T06:31:01.472Z,22.8
2019-06-20T06:36:06.406Z,23.2
2019-06-20T06:41:01.461Z,23.1
2019-06-20T06:47:01.392Z,22.9
2019-06-20T06:52:01.392Z,22.7
2019-06-20T06:57:01.446Z,22.7
2019-06-20T07:02:01.520Z,22.0
2019-06-20T07:07:01.401Z,21.7
2019-06-20T07:17:01.443Z,21.4
2019-06-20T07:22:06.495Z,21.0
2019-06-20T07:27:06.398Z,21.3
2019-06-20T07:37:01.461Z,21.1
2019-06-20T07:42:01.551Z,21.3
2019-06-20T07:52:02.072Z,21.6
2019-06-20T07:57:01.402Z,21.0
2019-06-20T08:02:01.431Z,21.0
2019-06-20T08:07:01.466Z,21.0
2019-06-20T08:12:01.521Z,20.6
2019-06-20T08:17:02.563Z,21.2
2019-06-20T08:22:01.464Z,22.0
2019-06-20T08:27:10.066Z,22.6
2019-06-20T08:32:04.400Z,22.9
2019-06-20T08:37:04.249Z,23.3
2019-06-20T08:42:02.455Z,23.1
2019-06-20T08:47:09.032Z,22.8
2019-06-20T08:52:01.641Z,22.9
2019-06-20T08:57:01.350Z,22.7
2019-06-20T09:12:02.742Z,22.0
2019-06-20T09:17:02.814Z,21.4
2019-06-20T09:22:01.482Z,21.2
2019-06-20T09:27:01.513Z,20.5
2019-06-20T09:32:01.456Z,20.5
2019-06-20T09:37:01.394Z,20.5
2019-06-20T09:42:01.453Z,20.8
2019-06-20T09:47:02.817Z,21.0
2019-06-20T09:52:01.391Z,21.5
2019-06-20T10:02:02.508Z,22.3
2019-06-20T10:07:01.389Z,22.7
2019-06-20T10:12:01.471Z,22.6
2019-06-20T10:17:01.403Z,22.5
2019-06-20T10:22:01.546Z,22.1
2019-06-20T10:27:01.385Z,21.9
2019-06-20T10:32:01.517Z,21.8
2019-06-20T10:37:01.390Z,21.4
2019-06-20T10:42:01.520Z,21.4
2019-06-20T10:47:06.397Z,21.5
2019-06-20T10:52:01.482Z,21.3
2019-06-20T10:57:01.411Z,21.3
2019-06-20T11:02:01.579Z,21.5
2019-06-20T11:07:01.770Z,21.2
2019-06-20T11:12:01.594Z,21.2
2019-06-20T11:17:01.396Z,20.8
2019-06-20T11:22:01.425Z,20.6
2019-06-20T11:27:01.395Z,20.3
2019-06-20T11:32:01.447Z,20.2
2019-06-20T11:37:01.355Z,20.0
2019-06-20T11:42:01.453Z,19.8
2019-06-20T11:47:01.421Z,19.4
2019-06-20T11:52:01.484Z,19.0
2019-06-20T11:57:01.488Z,19.0
2019-06-20T12:02:01.486Z,19.2
2019-06-20T12:08:01.396Z,19.2
2019-06-20T12:13:01.450Z,19.2
2019-06-20T12:18:01.383Z,18.4
2019-06-20T12:23:01.520Z,16.9
2019-06-20T12:28:01.415Z,15.1
2019-06-20T12:33:01.723Z,12.6
2019-06-20T12:38:06.399Z,10.4
2019-06-20T12:43:06.452Z,9.3
2019-06-20T12:48:06.397Z,8.5
2019-06-20T12:58:01.400Z,8.7
2019-06-20T13:03:01.394Z,8.8
2019-06-20T13:08:01.426Z,8.5
2019-06-20T13:13:01.513Z,8.1
2019-06-20T13:18:06.432Z,7.5
2019-06-20T13:28:01.656Z,6.6
2019-06-20T13:33:01.394Z,6.7
2019-06-20T13:43:01.514Z,6.9
2019-06-20T13:48:01.462Z,6.8
2019-06-20T13:53:01.466Z,6.9
2019-06-20T13:58:01.413Z,6.3
2019-06-20T14:03:01.525Z,6.0
2019-06-20T14:08:01.397Z,5.6
2019-06-20T14:13:01.528Z,5.6
2019-06-20T14:18:01.404Z,5.4
2019-06-20T14:23:01.475Z,5.5
2019-06-20T14:29:01.461Z,5.4
2019-06-20T14:34:01.398Z,5.3
2019-06-20T14:39:01.520Z,5.1
2019-06-20T14:44:01.445Z,4.9
2019-06-20T14:49:01.466Z,4.9
2019-06-20T14:54:01.379Z,5.2
2019-06-20T14:59:06.447Z,5.6
2019-06-20T15:04:01.390Z,6.0
2019-06-20T15:09:06.376Z,6.0
2019-06-20T15:14:01.394Z,6.0
2019-06-20T15:24:01.561Z,5.2
2019-06-20T15:29:01.529Z,4.6
2019-06-20T15:34:01.577Z,4.5
2019-06-20T15:39:01.448Z,4.5
2019-06-20T15:44:01.459Z,4.5
2019-06-20T15:49:16.728Z,4.4
2019-06-20T15:59:01.460Z,4.2
2019-06-20T16:04:06.433Z,4.2
2019-06-20T16:09:01.432Z,3.9
2019-06-20T16:14:01.384Z,4.2
2019-06-20T16:19:01.449Z,4.1
2019-06-20T16:24:01.390Z,4.3
2019-06-20T16:29:06.572Z,3.9
2019-06-20T16:34:01.392Z,3.9
2019-06-20T16:39:11.530Z,3.6
2019-06-20T16:44:06.404Z,3.4
2019-06-20T16:49:01.449Z,3.4
2019-06-20T16:54:01.383Z,3.4
2019-06-20T16:59:06.394Z,3.5
2019-06-20T17:04:01.400Z,3.7
2019-06-20T17:09:01.513Z,4.0
2019-06-20T17:14:01.360Z,4.2
2019-06-20T17:19:01.457Z,4.5
2019-06-20T17:24:01.408Z,4.5
2019-06-20T17:29:02.048Z,4.4
2019-06-20T17:39:01.393Z,4.5
2019-06-20T17:44:06.406Z,4.6
2019-06-20T17:49:01.474Z,4.6
2019-06-20T17:59:01.466Z,4.5
2019-06-20T18:04:14.501Z,4.8
2019-06-20T18:19:01.463Z,4.8
2019-06-20T18:24:06.403Z,5.3
2019-06-20T18:29:06.728Z,5.6
2019-06-20T18:34:06.406Z,5.5
2019-06-20T18:39:01.432Z,5.7
2019-06-20T18:44:01.402Z,5.9
2019-06-20T18:50:01.394Z,5.6
2019-06-20T18:55:01.385Z,5.4
2019-06-20T19:05:01.531Z,5.6
2019-06-20T19:15:01.387Z,5.7
2019-06-20T19:20:01.461Z,5.9
2019-06-20T19:25:04.403Z,6.4
2019-06-20T19:40:02.104Z,7.0
2019-06-20T19:45:01.470Z,7.1
2019-06-20T19:50:06.466Z,7.1
2019-06-20T19:55:01.377Z,7.3
2019-06-20T20:10:01.371Z,7.2
2019-06-20T20:15:01.637Z,6.9
2019-06-20T20:25:01.424Z,6.2
2019-06-20T20:35:01.467Z,6.1
2019-06-20T20:40:01.360Z,6.0
2019-06-20T20:50:01.534Z,6.2
2019-06-20T20:55:01.403Z,6.5
2019-06-20T21:05:01.371Z,7.0
2019-06-20T21:10:01.464Z,7.0
2019-06-20T21:35:01.417Z,7.6
2019-06-20T21:40:01.462Z,7.2
2019-06-20T21:45:01.360Z,7.2
2019-06-20T21:50:01.366Z,7.0
2019-06-20T21:55:01.401Z,6.7
2019-06-20T22:00:01.476Z,6.7
2019-06-20T22:05:06.403Z,7.0
2019-06-20T22:10:01.469Z,6.9
2019-06-20T22:15:01.494Z,6.9
2019-06-20T22:21:01.548Z,6.8
2019-06-20T22:26:01.422Z,6.8
2019-06-20T22:31:01.485Z,6.8
2019-06-20T22:36:01.386Z,6.6
2019-06-20T22:41:01.466Z,6.4
2019-06-20T22:46:01.460Z,6.6
2019-06-20T22:51:01.462Z,6.6
2019-06-20T22:56:01.386Z,6.4
2019-06-20T23:06:01.480Z,6.4
2019-06-20T23:21:05.534Z,7.1
2019-06-20T23:26:07.448Z,7.3
2019-06-20T23:32:01.516Z,7.4
2019-06-20T23:42:01.389Z,7.5
2019-06-20T23:47:01.362Z,7.6
2019-06-20T23:52:01.532Z,8.2
2019-06-20T23:57:01.398Z,8.7
